sensor_id;sensor_type;location;lat;lon;timestamp;P1;durP1;ratioP1;P2;durP2;ratioP2
7683;SDS011;3884;48.616;12.872;2023-06-10T00:01:37;8.23;;;7.53;;
7683;SDS011;3884;48.616;12.872;2023-06-10T00:04:04;8.87;;;7.80;;
7683;SDS011;3884;48.616;12.872;2023-06-10T00:06:31;8.63;;;7.80;;
7683;SDS011;3884;48.616;12.872;2023-06-10T00:09:00;9.23;;;8.03;;
7683;SDS011;3884;48.616;12.872;2023-06-10T00:11:29;9.07;;;7.60;;
7683;SDS011;3884;48.616;12.872;2023-06-10T00:13:56;8.67;;;7.87;;
7683;SDS011;3884;48.616;12.872;2023-06-10T00:16:24;8.60;;;7.77;;
7683;SDS011;3884;48.616;12.872;2023-06-10T00:18:51;10.10;;;9.17;;
7683;SDS011;3884;48.616;12.872;2023-06-10T00:21:20;10.77;;;9.77;;
7683;SDS011;3884;48.616;12.872;2023-06-10T00:23:47;11.40;;;10.33;;
7683;SDS011;3884;48.616;12.872;2023-06-10T00:26:14;12.27;;;11.23;;
7683;SDS011;3884;48.616;12.872;2023-06-10T00:28:43;11.67;;;10.57;;
7683;SDS011;3884;48.616;12.872;2023-06-10T00:31:10;10.50;;;9.57;;
7683;SDS011;3884;48.616;12.872;2023-06-10T00:33:39;10.20;;;9.20;;
7683;SDS011;3884;48.616;12.872;2023-06-10T00:36:06;9.03;;;8.07;;
7683;SDS011;3884;48.616;12.872;2023-06-10T00:38:32;9.57;;;8.67;;
7683;SDS011;3884;48.616;12.872;2023-06-10T00:41:01;8.07;;;7.27;;
7683;SDS011;3884;48.616;12.872;2023-06-10T00:43:28;8.33;;;7.53;;
7683;SDS011;3884;48.616;12.872;2023-06-10T00:45:54;9.13;;;8.30;;
7683;SDS011;3884;48.616;12.872;2023-06-10T00:48:21;8.80;;;8.00;;
7683;SDS011;3884;48.616;12.872;2023-06-10T00:50:50;9.07;;;8.20;;
7683;SDS011;3884;48.616;12.872;2023-06-10T00:53:16;9.30;;;8.47;;
7683;SDS011;3884;48.616;12.872;2023-06-10T00:55:44;9.17;;;8.23;;
7683;SDS011;3884;48.616;12.872;2023-06-10T00:58:11;8.87;;;7.90;;
7683;SDS011;3884;48.616;12.872;2023-06-10T01:00:38;8.67;;;7.77;;
7683;SDS011;3884;48.616;12.872;2023-06-10T01:03:05;8.10;;;7.40;;
7683;SDS011;3884;48.616;12.872;2023-06-10T01:05:32;8.57;;;7.87;;
7683;SDS011;3884;48.616;12.872;2023-06-10T01:08:01;8.70;;;7.43;;
7683;SDS011;3884;48.616;12.872;2023-06-10T01:10:33;8.10;;;7.40;;
7683;SDS011;3884;48.616;12.872;2023-06-10T01:13:03;8.83;;;8.03;;
7683;SDS011;3884;48.616;12.872;2023-06-10T01:15:33;9.77;;;8.87;;
7683;SDS011;3884;48.616;12.872;2023-06-10T01:18:02;9.17;;;8.37;;
7683;SDS011;3884;48.616;12.872;2023-06-10T01:20:34;9.37;;;8.37;;
7683;SDS011;3884;48.616;12.872;2023-06-10T01:23:03;9.50;;;8.43;;
7683;SDS011;3884;48.616;12.872;2023-06-10T01:25:31;8.63;;;7.83;;
7683;SDS011;3884;48.616;12.872;2023-06-10T01:28:02;8.80;;;8.00;;
7683;SDS011;3884;48.616;12.872;2023-06-10T01:30:36;9.97;;;9.07;;
7683;SDS011;3884;48.616;12.872;2023-06-10T01:33:10;8.87;;;7.97;;
7683;SDS011;3884;48.616;12.872;2023-06-10T01:35:42;9.30;;;8.40;;
7683;SDS011;3884;48.616;12.872;2023-06-10T01:38:12;9.57;;;8.57;;
7683;SDS011;3884;48.616;12.872;2023-06-10T01:40:41;9.77;;;8.87;;
7683;SDS011;3884;48.616;12.872;2023-06-10T01:43:09;10.07;;;9.17;;
7683;SDS011;3884;48.616;12.872;2023-06-10T01:45:36;9.33;;;8.43;;
7683;SDS011;3884;48.616;12.872;2023-06-10T01:48:07;10.87;;;9.77;;
7683;SDS011;3884;48.616;12.872;2023-06-10T01:50:33;11.73;;;10.43;;
7683;SDS011;3884;48.616;12.872;2023-06-10T01:53:03;10.60;;;9.60;;
7683;SDS011;3884;48.616;12.872;2023-06-10T01:55:31;9.17;;;8.37;;
7683;SDS011;3884;48.616;12.872;2023-06-10T01:57:58;9.83;;;8.60;;
7683;SDS011;3884;48.616;12.872;2023-06-10T02:00:26;9.77;;;8.87;;
7683;SDS011;3884;48.616;12.872;2023-06-10T02:02:53;10.63;;;9.63;;
7683;SDS011;3884;48.616;12.872;2023-06-10T02:05:21;11.17;;;9.63;;
7683;SDS011;3884;48.616;12.872;2023-06-10T02:07:48;11.10;;;10.10;;
7683;SDS011;3884;48.616;12.872;2023-06-10T02:10:15;11.27;;;10.17;;
7683;SDS011;3884;48.616;12.872;2023-06-10T02:12:43;11.53;;;10.30;;
7683;SDS011;3884;48.616;12.872;2023-06-10T02:15:10;10.93;;;9.83;;
7683;SDS011;3884;48.616;12.872;2023-06-10T02:17:37;11.20;;;10.20;;
7683;SDS011;3884;48.616;12.872;2023-06-10T02:20:04;11.63;;;10.30;;
7683;SDS011;3884;48.616;12.872;2023-06-10T02:22:35;10.67;;;9.70;;
7683;SDS011;3884;48.616;12.872;2023-06-10T02:25:07;11.00;;;10.00;;
7683;SDS011;3884;48.616;12.872;2023-06-10T02:27:35;11.40;;;10.30;;
7683;SDS011;3884;48.616;12.872;2023-06-10T02:30:03;11.27;;;10.20;;
7683;SDS011;3884;48.616;12.872;2023-06-10T02:32:34;10.17;;;9.17;;
7683;SDS011;3884;48.616;12.872;2023-06-10T02:35:02;10.90;;;9.90;;
7683;SDS011;3884;48.616;12.872;2023-06-10T02:37:30;10.40;;;9.40;;
7683;SDS011;3884;48.616;12.872;2023-06-10T02:39:57;9.80;;;8.83;;
7683;SDS011;3884;48.616;12.872;2023-06-10T02:42:25;9.90;;;9.00;;
7683;SDS011;3884;48.616;12.872;2023-06-10T02:44:52;9.47;;;8.63;;
7683;SDS011;3884;48.616;12.872;2023-06-10T02:47:31;9.43;;;8.53;;
7683;SDS011;3884;48.616;12.872;2023-06-10T02:49:58;10.10;;;9.10;;
7683;SDS011;3884;48.616;12.872;2023-06-10T02:52:25;11.20;;;8.77;;
7683;SDS011;3884;48.616;12.872;2023-06-10T02:54:52;10.37;;;9.37;;
7683;SDS011;3884;48.616;12.872;2023-06-10T02:57:19;10.60;;;9.60;;
7683;SDS011;3884;48.616;12.872;2023-06-10T02:59:46;11.80;;;9.83;;
7683;SDS011;3884;48.616;12.872;2023-06-10T03:02:13;11.03;;;10.03;;
7683;SDS011;3884;48.616;12.872;2023-06-10T03:04:48;11.73;;;10.63;;
7683;SDS011;3884;48.616;12.872;2023-06-10T03:07:17;11.90;;;10.70;;
7683;SDS011;3884;48.616;12.872;2023-06-10T03:09:46;11.57;;;10.37;;
7683;SDS011;3884;48.616;12.872;2023-06-10T03:12:14;10.60;;;9.60;;
7683;SDS011;3884;48.616;12.872;2023-06-10T03:14:45;10.80;;;9.77;;
7683;SDS011;3884;48.616;12.872;2023-06-10T03:17:12;10.40;;;9.40;;
7683;SDS011;3884;48.616;12.872;2023-06-10T03:19:41;10.63;;;9.73;;
7683;SDS011;3884;48.616;12.872;2023-06-10T03:22:10;10.27;;;9.27;;
7683;SDS011;3884;48.616;12.872;2023-06-10T03:25:00;10.83;;;8.83;;
7683;SDS011;3884;48.616;12.872;2023-06-10T03:27:27;9.77;;;8.87;;
7683;SDS011;3884;48.616;12.872;2023-06-10T03:29:58;10.43;;;9.43;;
7683;SDS011;3884;48.616;12.872;2023-06-10T03:32:26;10.20;;;9.20;;
7683;SDS011;3884;48.616;12.872;2023-06-10T03:34:53;10.57;;;9.57;;
7683;SDS011;3884;48.616;12.872;2023-06-10T03:37:24;11.80;;;10.60;;
7683;SDS011;3884;48.616;12.872;2023-06-10T03:39:51;12.17;;;10.73;;
7683;SDS011;3884;48.616;12.872;2023-06-10T03:42:18;12.70;;;10.50;;
7683;SDS011;3884;48.616;12.872;2023-06-10T03:44:45;11.20;;;10.10;;
7683;SDS011;3884;48.616;12.872;2023-06-10T03:47:12;11.37;;;10.23;;
7683;SDS011;3884;48.616;12.872;2023-06-10T03:49:39;11.43;;;10.23;;
7683;SDS011;3884;48.616;12.872;2023-06-10T03:52:06;11.20;;;10.00;;
7683;SDS011;3884;48.616;12.872;2023-06-10T03:54:34;11.93;;;9.40;;
7683;SDS011;3884;48.616;12.872;2023-06-10T03:57:02;10.53;;;9.47;;
7683;SDS011;3884;48.616;12.872;2023-06-10T03:59:30;10.43;;;9.53;;
7683;SDS011;3884;48.616;12.872;2023-06-10T04:01:57;10.73;;;9.63;;
7683;SDS011;3884;48.616;12.872;2023-06-10T04:04:25;10.53;;;9.63;;
7683;SDS011;3884;48.616;12.872;2023-06-10T04:06:52;10.60;;;9.60;;
7683;SDS011;3884;48.616;12.872;2023-06-10T04:09:21;11.10;;;9.50;;
7683;SDS011;3884;48.616;12.872;2023-06-10T04:11:51;10.30;;;9.33;;
7683;SDS011;3884;48.616;12.872;2023-06-10T04:14:19;10.17;;;9.17;;
7683;SDS011;3884;48.616;12.872;2023-06-10T04:16:46;10.83;;;9.73;;
7683;SDS011;3884;48.616;12.872;2023-06-10T04:19:14;13.80;;;10.33;;
7683;SDS011;3884;48.616;12.872;2023-06-10T04:21:42;11.23;;;9.97;;
7683;SDS011;3884;48.616;12.872;2023-06-10T04:24:09;12.50;;;11.20;;
7683;SDS011;3884;48.616;12.872;2023-06-10T04:26:36;12.80;;;11.43;;
7683;SDS011;3884;48.616;12.872;2023-06-10T04:29:05;12.60;;;11.30;;
7683;SDS011;3884;48.616;12.872;2023-06-10T04:31:32;12.87;;;11.57;;
7683;SDS011;3884;48.616;12.872;2023-06-10T04:33:59;12.93;;;11.57;;
7683;SDS011;3884;48.616;12.872;2023-06-10T04:36:27;13.60;;;12.30;;
7683;SDS011;3884;48.616;12.872;2023-06-10T04:38:54;13.10;;;11.90;;
7683;SDS011;3884;48.616;12.872;2023-06-10T04:41:21;13.03;;;11.60;;
7683;SDS011;3884;48.616;12.872;2023-06-10T04:43:49;12.10;;;10.90;;
7683;SDS011;3884;48.616;12.872;2023-06-10T04:46:17;11.93;;;10.83;;
7683;SDS011;3884;48.616;12.872;2023-06-10T04:48:44;13.17;;;11.97;;
7683;SDS011;3884;48.616;12.872;2023-06-10T04:51:12;13.37;;;12.17;;
7683;SDS011;3884;48.616;12.872;2023-06-10T04:53:39;13.40;;;12.10;;
7683;SDS011;3884;48.616;12.872;2023-06-10T04:56:06;12.60;;;11.40;;
7683;SDS011;3884;48.616;12.872;2023-06-10T04:58:33;13.47;;;12.17;;
7683;SDS011;3884;48.616;12.872;2023-06-10T05:00:59;13.90;;;12.60;;
7683;SDS011;3884;48.616;12.872;2023-06-10T05:03:28;13.60;;;12.40;;
7683;SDS011;3884;48.616;12.872;2023-06-10T05:05:55;13.30;;;12.10;;
7683;SDS011;3884;48.616;12.872;2023-06-10T05:08:21;12.83;;;11.53;;
7683;SDS011;3884;48.616;12.872;2023-06-10T05:10:48;14.83;;;12.00;;
7683;SDS011;3884;48.616;12.872;2023-06-10T05:13:16;13.70;;;12.30;;
7683;SDS011;3884;48.616;12.872;2023-06-10T05:15:43;13.80;;;12.50;;
7683;SDS011;3884;48.616;12.872;2023-06-10T05:18:10;14.73;;;13.23;;
7683;SDS011;3884;48.616;12.872;2023-06-10T05:20:39;13.43;;;12.23;;
7683;SDS011;3884;48.616;12.872;2023-06-10T05:23:06;14.40;;;13.10;;
7683;SDS011;3884;48.616;12.872;2023-06-10T05:25:35;13.90;;;12.60;;
7683;SDS011;3884;48.616;12.872;2023-06-10T05:28:02;13.90;;;12.50;;
7683;SDS011;3884;48.616;12.872;2023-06-10T05:30:28;14.13;;;12.67;;
7683;SDS011;3884;48.616;12.872;2023-06-10T05:32:55;13.47;;;12.20;;
7683;SDS011;3884;48.616;12.872;2023-06-10T05:35:22;12.20;;;11.00;;
7683;SDS011;3884;48.616;12.872;2023-06-10T05:37:51;11.40;;;10.30;;
7683;SDS011;3884;48.616;12.872;2023-06-10T05:40:17;12.40;;;11.20;;
7683;SDS011;3884;48.616;12.872;2023-06-10T05:42:44;11.63;;;10.50;;
7683;SDS011;3884;48.616;12.872;2023-06-10T05:45:11;11.67;;;10.57;;
7683;SDS011;3884;48.616;12.872;2023-06-10T05:47:38;11.70;;;10.60;;
7683;SDS011;3884;48.616;12.872;2023-06-10T05:50:05;12.00;;;10.90;;
7683;SDS011;3884;48.616;12.872;2023-06-10T05:52:33;12.17;;;10.97;;
7683;SDS011;3884;48.616;12.872;2023-06-10T05:55:02;12.23;;;11.03;;
7683;SDS011;3884;48.616;12.872;2023-06-10T05:57:29;11.73;;;10.63;;
7683;SDS011;3884;48.616;12.872;2023-06-10T05:59:55;11.33;;;10.33;;
7683;SDS011;3884;48.616;12.872;2023-06-10T06:02:23;10.67;;;9.67;;
7683;SDS011;3884;48.616;12.872;2023-06-10T06:04:50;10.83;;;9.83;;
7683;SDS011;3884;48.616;12.872;2023-06-10T06:07:17;9.77;;;8.93;;
7683;SDS011;3884;48.616;12.872;2023-06-10T06:09:45;9.70;;;8.80;;
7683;SDS011;3884;48.616;12.872;2023-06-10T06:12:14;10.10;;;9.20;;
7683;SDS011;3884;48.616;12.872;2023-06-10T06:14:40;10.13;;;9.23;;
7683;SDS011;3884;48.616;12.872;2023-06-10T06:17:07;10.37;;;9.40;;
7683;SDS011;3884;48.616;12.872;2023-06-10T06:19:34;9.10;;;8.37;;
7683;SDS011;3884;48.616;12.872;2023-06-10T06:22:01;9.30;;;8.40;;
7683;SDS011;3884;48.616;12.872;2023-06-10T06:24:27;9.30;;;8.43;;
7683;SDS011;3884;48.616;12.872;2023-06-10T06:26:54;9.93;;;8.97;;
7683;SDS011;3884;48.616;12.872;2023-06-10T06:29:22;8.90;;;8.10;;
7683;SDS011;3884;48.616;12.872;2023-06-10T06:31:55;9.27;;;8.37;;
7683;SDS011;3884;48.616;12.872;2023-06-10T06:34:21;8.77;;;7.97;;
7683;SDS011;3884;48.616;12.872;2023-06-10T06:36:48;8.17;;;7.47;;
7683;SDS011;3884;48.616;12.872;2023-06-10T06:39:16;8.27;;;7.57;;
7683;SDS011;3884;48.616;12.872;2023-06-10T06:41:44;8.40;;;7.70;;
7683;SDS011;3884;48.616;12.872;2023-06-10T06:44:11;7.97;;;7.27;;
7683;SDS011;3884;48.616;12.872;2023-06-10T06:46:42;8.17;;;7.47;;
7683;SDS011;3884;48.616;12.872;2023-06-10T06:49:08;8.43;;;7.63;;
7683;SDS011;3884;48.616;12.872;2023-06-10T06:51:35;7.97;;;7.27;;
7683;SDS011;3884;48.616;12.872;2023-06-10T06:54:02;7.60;;;7.00;;
7683;SDS011;3884;48.616;12.872;2023-06-10T06:56:30;7.67;;;6.97;;
7683;SDS011;3884;48.616;12.872;2023-06-10T06:58:57;8.10;;;7.20;;
7683;SDS011;3884;48.616;12.872;2023-06-10T07:01:24;7.57;;;6.90;;
7683;SDS011;3884;48.616;12.872;2023-06-10T07:03:52;7.43;;;6.77;;
7683;SDS011;3884;48.616;12.872;2023-06-10T07:06:19;7.37;;;6.73;;
7683;SDS011;3884;48.616;12.872;2023-06-10T07:08:46;7.40;;;6.70;;
7683;SDS011;3884;48.616;12.872;2023-06-10T07:11:13;7.93;;;7.13;;
7683;SDS011;3884;48.616;12.872;2023-06-10T07:13:41;7.63;;;6.93;;
7683;SDS011;3884;48.616;12.872;2023-06-10T07:16:08;8.30;;;7.50;;
7683;SDS011;3884;48.616;12.872;2023-06-10T07:18:35;7.67;;;6.97;;
7683;SDS011;3884;48.616;12.872;2023-06-10T07:21:03;7.23;;;6.60;;
7683;SDS011;3884;48.616;12.872;2023-06-10T07:23:30;7.30;;;6.70;;
7683;SDS011;3884;48.616;12.872;2023-06-10T07:25:56;7.00;;;6.40;;
7683;SDS011;3884;48.616;12.872;2023-06-10T07:28:23;7.87;;;6.43;;
7683;SDS011;3884;48.616;12.872;2023-06-10T07:30:50;7.03;;;6.43;;
7683;SDS011;3884;48.616;12.872;2023-06-10T07:33:17;7.90;;;7.10;;
7683;SDS011;3884;48.616;12.872;2023-06-10T07:35:44;7.33;;;6.63;;
7683;SDS011;3884;48.616;12.872;2023-06-10T07:38:12;7.13;;;6.50;;
7683;SDS011;3884;48.616;12.872;2023-06-10T07:40:40;6.77;;;6.17;;
7683;SDS011;3884;48.616;12.872;2023-06-10T07:43:07;7.33;;;6.70;;
7683;SDS011;3884;48.616;12.872;2023-06-10T07:45:34;7.70;;;6.43;;
7683;SDS011;3884;48.616;12.872;2023-06-10T07:48:00;6.73;;;6.17;;
7683;SDS011;3884;48.616;12.872;2023-06-10T07:50:27;6.83;;;6.23;;
7683;SDS011;3884;48.616;12.872;2023-06-10T07:52:54;6.93;;;6.33;;
7683;SDS011;3884;48.616;12.872;2023-06-10T07:55:22;7.13;;;6.50;;
7683;SDS011;3884;48.616;12.872;2023-06-10T07:57:51;6.80;;;6.20;;
7683;SDS011;3884;48.616;12.872;2023-06-10T08:00:18;7.10;;;6.50;;
7683;SDS011;3884;48.616;12.872;2023-06-10T08:02:45;6.77;;;6.17;;
7683;SDS011;3884;48.616;12.872;2023-06-10T08:05:12;7.20;;;6.50;;
7683;SDS011;3884;48.616;12.872;2023-06-10T08:07:39;6.70;;;6.10;;
7683;SDS011;3884;48.616;12.872;2023-06-10T08:10:06;6.20;;;5.70;;
7683;SDS011;3884;48.616;12.872;2023-06-10T08:12:35;6.67;;;5.97;;
7683;SDS011;3884;48.616;12.872;2023-06-10T08:15:02;6.10;;;5.60;;
7683;SDS011;3884;48.616;12.872;2023-06-10T08:17:30;6.47;;;5.87;;
7683;SDS011;3884;48.616;12.872;2023-06-10T08:19:56;7.20;;;6.50;;
7683;SDS011;3884;48.616;12.872;2023-06-10T08:22:23;6.50;;;6.00;;
7683;SDS011;3884;48.616;12.872;2023-06-10T08:24:50;6.90;;;6.30;;
7683;SDS011;3884;48.616;12.872;2023-06-10T08:27:16;6.60;;;6.00;;
7683;SDS011;3884;48.616;12.872;2023-06-10T08:29:44;6.30;;;5.80;;
7683;SDS011;3884;48.616;12.872;2023-06-10T08:32:11;7.27;;;6.57;;
7683;SDS011;3884;48.616;12.872;2023-06-10T08:34:38;7.50;;;6.80;;
7683;SDS011;3884;48.616;12.872;2023-06-10T08:37:06;7.37;;;6.67;;
7683;SDS011;3884;48.616;12.872;2023-06-10T08:39:33;7.63;;;6.83;;
7683;SDS011;3884;48.616;12.872;2023-06-10T08:42:00;8.73;;;7.40;;
7683;SDS011;3884;48.616;12.872;2023-06-10T08:44:37;8.33;;;7.27;;
7683;SDS011;3884;48.616;12.872;2023-06-10T08:47:08;7.47;;;6.87;;
7683;SDS011;3884;48.616;12.872;2023-06-10T08:49:41;7.90;;;7.30;;
7683;SDS011;3884;48.616;12.872;2023-06-10T08:52:09;9.57;;;7.80;;
7683;SDS011;3884;48.616;12.872;2023-06-10T08:54:40;8.00;;;7.30;;
7683;SDS011;3884;48.616;12.872;2023-06-10T08:57:12;7.77;;;7.17;;
7683;SDS011;3884;48.616;12.872;2023-06-10T08:59:39;8.10;;;7.40;;
7683;SDS011;3884;48.616;12.872;2023-06-10T09:02:09;8.17;;;7.37;;
7683;SDS011;3884;48.616;12.872;2023-06-10T09:04:36;7.67;;;7.00;;
7683;SDS011;3884;48.616;12.872;2023-06-10T09:07:04;7.87;;;7.17;;
7683;SDS011;3884;48.616;12.872;2023-06-10T09:09:32;7.90;;;7.03;;
7683;SDS011;3884;48.616;12.872;2023-06-10T09:11:59;7.70;;;7.10;;
7683;SDS011;3884;48.616;12.872;2023-06-10T09:14:26;7.97;;;7.17;;
7683;SDS011;3884;48.616;12.872;2023-06-10T09:16:53;8.10;;;7.37;;
7683;SDS011;3884;48.616;12.872;2023-06-10T09:19:23;8.57;;;7.77;;
7683;SDS011;3884;48.616;12.872;2023-06-10T09:21:51;7.67;;;6.97;;
7683;SDS011;3884;48.616;12.872;2023-06-10T09:24:17;7.73;;;7.10;;
7683;SDS011;3884;48.616;12.872;2023-06-10T09:26:44;8.53;;;7.83;;
7683;SDS011;3884;48.616;12.872;2023-06-10T09:29:11;8.00;;;7.30;;
7683;SDS011;3884;48.616;12.872;2023-06-10T09:31:38;7.47;;;6.87;;
7683;SDS011;3884;48.616;12.872;2023-06-10T09:34:09;7.30;;;6.60;;
7683;SDS011;3884;48.616;12.872;2023-06-10T09:36:38;7.23;;;6.63;;
7683;SDS011;3884;48.616;12.872;2023-06-10T09:39:12;7.40;;;6.70;;
7683;SDS011;3884;48.616;12.872;2023-06-10T09:41:41;6.73;;;6.13;;
7683;SDS011;3884;48.616;12.872;2023-06-10T09:44:15;8.73;;;6.30;;
7683;SDS011;3884;48.616;12.872;2023-06-10T09:46:47;6.47;;;5.97;;
7683;SDS011;3884;48.616;12.872;2023-06-10T09:49:15;7.00;;;6.40;;
7683;SDS011;3884;48.616;12.872;2023-06-10T09:51:50;6.27;;;5.77;;
7683;SDS011;3884;48.616;12.872;2023-06-10T09:54:18;6.20;;;5.70;;
7683;SDS011;3884;48.616;12.872;2023-06-10T09:56:46;6.50;;;6.00;;
7683;SDS011;3884;48.616;12.872;2023-06-10T09:59:13;6.30;;;5.70;;
7683;SDS011;3884;48.616;12.872;2023-06-10T10:01:42;7.27;;;5.77;;
7683;SDS011;3884;48.616;12.872;2023-06-10T10:04:09;6.53;;;5.93;;
7683;SDS011;3884;48.616;12.872;2023-06-10T10:06:37;6.57;;;5.97;;
7683;SDS011;3884;48.616;12.872;2023-06-10T10:09:06;6.47;;;5.80;;
7683;SDS011;3884;48.616;12.872;2023-06-10T10:11:33;6.17;;;5.67;;
7683;SDS011;3884;48.616;12.872;2023-06-10T10:14:01;6.10;;;5.60;;
7683;SDS011;3884;48.616;12.872;2023-06-10T10:16:33;6.37;;;5.77;;
7683;SDS011;3884;48.616;12.872;2023-06-10T10:19:06;6.43;;;5.93;;
7683;SDS011;3884;48.616;12.872;2023-06-10T10:21:37;6.37;;;5.77;;
7683;SDS011;3884;48.616;12.872;2023-06-10T10:24:14;6.87;;;6.27;;
7683;SDS011;3884;48.616;12.872;2023-06-10T10:26:43;7.07;;;6.47;;
7683;SDS011;3884;48.616;12.872;2023-06-10T10:29:14;6.70;;;6.10;;
7683;SDS011;3884;48.616;12.872;2023-06-10T10:31:46;7.50;;;6.70;;
7683;SDS011;3884;48.616;12.872;2023-06-10T10:34:16;7.77;;;6.47;;
7683;SDS011;3884;48.616;12.872;2023-06-10T10:36:48;7.83;;;6.50;;
7683;SDS011;3884;48.616;12.872;2023-06-10T10:39:17;7.43;;;6.53;;
7683;SDS011;3884;48.616;12.872;2023-06-10T10:41:45;7.40;;;6.80;;
7683;SDS011;3884;48.616;12.872;2023-06-10T10:44:13;6.80;;;6.20;;
7683;SDS011;3884;48.616;12.872;2023-06-10T10:46:41;7.00;;;6.50;;
7683;SDS011;3884;48.616;12.872;2023-06-10T10:49:10;6.77;;;6.23;;
7683;SDS011;3884;48.616;12.872;2023-06-10T10:51:53;6.80;;;6.20;;
7683;SDS011;3884;48.616;12.872;2023-06-10T10:54:27;7.30;;;6.60;;
7683;SDS011;3884;48.616;12.872;2023-06-10T10:59:51;6.37;;;5.87;;
7683;SDS011;3884;48.616;12.872;2023-06-10T11:02:32;6.93;;;6.20;;
7683;SDS011;3884;48.616;12.872;2023-06-10T11:05:05;6.90;;;6.30;;
7683;SDS011;3884;48.616;12.872;2023-06-10T11:07:32;6.67;;;5.97;;
7683;SDS011;3884;48.616;12.872;2023-06-10T11:10:05;6.57;;;6.07;;
7683;SDS011;3884;48.616;12.872;2023-06-10T11:12:50;6.60;;;6.00;;
7683;SDS011;3884;48.616;12.872;2023-06-10T11:15:43;6.00;;;5.50;;
7683;SDS011;3884;48.616;12.872;2023-06-10T11:18:19;6.90;;;6.07;;
7683;SDS011;3884;48.616;12.872;2023-06-10T11:20:52;6.37;;;5.77;;
7683;SDS011;3884;48.616;12.872;2023-06-10T11:23:33;6.67;;;6.00;;
7683;SDS011;3884;48.616;12.872;2023-06-10T11:26:17;13.73;;;6.60;;
7683;SDS011;3884;48.616;12.872;2023-06-10T11:29:07;10.90;;;6.27;;
7683;SDS011;3884;48.616;12.872;2023-06-10T11:31:39;9.57;;;6.20;;
7683;SDS011;3884;48.616;12.872;2023-06-10T11:34:10;6.30;;;5.70;;
7683;SDS011;3884;48.616;12.872;2023-06-10T11:36:38;6.53;;;5.93;;
7683;SDS011;3884;48.616;12.872;2023-06-10T11:39:08;11.83;;;8.13;;
7683;SDS011;3884;48.616;12.872;2023-06-10T11:41:37;13.43;;;8.10;;
7683;SDS011;3884;48.616;12.872;2023-06-10T11:44:07;10.70;;;8.33;;
7683;SDS011;3884;48.616;12.872;2023-06-10T11:46:35;11.63;;;9.53;;
7683;SDS011;3884;48.616;12.872;2023-06-10T11:49:02;10.60;;;9.60;;
7683;SDS011;3884;48.616;12.872;2023-06-10T11:51:32;10.13;;;9.23;;
7683;SDS011;3884;48.616;12.872;2023-06-10T11:54:00;10.07;;;9.27;;
7683;SDS011;3884;48.616;12.872;2023-06-10T11:56:27;9.00;;;8.20;;
7683;SDS011;3884;48.616;12.872;2023-06-10T11:58:58;10.03;;;9.13;;
7683;SDS011;3884;48.616;12.872;2023-06-10T12:01:29;9.40;;;8.37;;
7683;SDS011;3884;48.616;12.872;2023-06-10T12:04:00;8.63;;;7.83;;
7683;SDS011;3884;48.616;12.872;2023-06-10T12:06:39;8.47;;;7.57;;
7683;SDS011;3884;48.616;12.872;2023-06-10T12:09:12;6.37;;;5.77;;
7683;SDS011;3884;48.616;12.872;2023-06-10T12:11:50;7.13;;;6.47;;
7683;SDS011;3884;48.616;12.872;2023-06-10T12:17:21;6.87;;;6.20;;
7683;SDS011;3884;48.616;12.872;2023-06-10T12:19:49;7.17;;;6.47;;
7683;SDS011;3884;48.616;12.872;2023-06-10T12:22:16;8.83;;;6.40;;
7683;SDS011;3884;48.616;12.872;2023-06-10T12:24:44;7.50;;;6.60;;
7683;SDS011;3884;48.616;12.872;2023-06-10T12:27:11;7.93;;;7.13;;
7683;SDS011;3884;48.616;12.872;2023-06-10T12:29:38;7.63;;;6.93;;
7683;SDS011;3884;48.616;12.872;2023-06-10T12:32:07;8.10;;;7.30;;
7683;SDS011;3884;48.616;12.872;2023-06-10T12:34:36;7.97;;;7.17;;
7683;SDS011;3884;48.616;12.872;2023-06-10T12:37:04;7.30;;;6.70;;
7683;SDS011;3884;48.616;12.872;2023-06-10T12:39:32;7.40;;;6.80;;
7683;SDS011;3884;48.616;12.872;2023-06-10T12:42:00;7.77;;;7.07;;
7683;SDS011;3884;48.616;12.872;2023-06-10T12:44:31;5.10;;;4.70;;
7683;SDS011;3884;48.616;12.872;2023-06-10T12:46:59;4.80;;;4.40;;
7683;SDS011;3884;48.616;12.872;2023-06-10T12:49:28;5.27;;;4.87;;
7683;SDS011;3884;48.616;12.872;2023-06-10T12:51:54;5.27;;;4.87;;
7683;SDS011;3884;48.616;12.872;2023-06-10T12:54:21;4.97;;;4.17;;
7683;SDS011;3884;48.616;12.872;2023-06-10T12:56:48;4.90;;;4.50;;
7683;SDS011;3884;48.616;12.872;2023-06-10T12:59:15;6.80;;;5.03;;
7683;SDS011;3884;48.616;12.872;2023-06-10T13:01:42;5.30;;;4.90;;
7683;SDS011;3884;48.616;12.872;2023-06-10T13:04:09;5.83;;;5.33;;
7683;SDS011;3884;48.616;12.872;2023-06-10T13:06:38;5.83;;;5.07;;
7683;SDS011;3884;48.616;12.872;2023-06-10T13:09:05;5.57;;;5.17;;
7683;SDS011;3884;48.616;12.872;2023-06-10T13:11:33;5.83;;;5.37;;
7683;SDS011;3884;48.616;12.872;2023-06-10T13:14:01;5.33;;;4.93;;
7683;SDS011;3884;48.616;12.872;2023-06-10T13:16:29;5.47;;;4.90;;
7683;SDS011;3884;48.616;12.872;2023-06-10T13:18:58;4.77;;;4.37;;
7683;SDS011;3884;48.616;12.872;2023-06-10T13:21:31;4.90;;;4.50;;
7683;SDS011;3884;48.616;12.872;2023-06-10T13:24:00;5.10;;;4.70;;
7683;SDS011;3884;48.616;12.872;2023-06-10T13:26:27;4.37;;;4.07;;
7683;SDS011;3884;48.616;12.872;2023-06-10T13:28:54;4.07;;;3.77;;
7683;SDS011;3884;48.616;12.872;2023-06-10T13:31:20;4.90;;;4.50;;
7683;SDS011;3884;48.616;12.872;2023-06-10T13:33:47;4.03;;;3.73;;
7683;SDS011;3884;48.616;12.872;2023-06-10T13:36:14;4.33;;;3.93;;
7683;SDS011;3884;48.616;12.872;2023-06-10T13:38:41;4.53;;;4.20;;
7683;SDS011;3884;48.616;12.872;2023-06-10T13:41:10;5.40;;;4.47;;
7683;SDS011;3884;48.616;12.872;2023-06-10T13:43:38;5.40;;;4.90;;
7683;SDS011;3884;48.616;12.872;2023-06-10T13:46:05;6.40;;;5.13;;
7683;SDS011;3884;48.616;12.872;2023-06-10T13:48:33;4.77;;;4.40;;
7683;SDS011;3884;48.616;12.872;2023-06-10T13:51:00;5.27;;;4.77;;
7683;SDS011;3884;48.616;12.872;2023-06-10T13:53:28;5.30;;;4.83;;
7683;SDS011;3884;48.616;12.872;2023-06-10T13:55:59;4.43;;;4.03;;
7683;SDS011;3884;48.616;12.872;2023-06-10T13:58:27;3.70;;;3.40;;
7683;SDS011;3884;48.616;12.872;2023-06-10T14:00:54;3.53;;;3.23;;
7683;SDS011;3884;48.616;12.872;2023-06-10T14:03:21;3.17;;;2.93;;
7683;SDS011;3884;48.616;12.872;2023-06-10T14:05:48;7.03;;;6.27;;
7683;SDS011;3884;48.616;12.872;2023-06-10T14:08:15;8.27;;;7.00;;
7683;SDS011;3884;48.616;12.872;2023-06-10T14:10:42;7.17;;;6.40;;
7683;SDS011;3884;48.616;12.872;2023-06-10T14:13:09;4.50;;;4.10;;
7683;SDS011;3884;48.616;12.872;2023-06-10T14:15:37;2.77;;;2.57;;
7683;SDS011;3884;48.616;12.872;2023-06-10T14:18:05;3.43;;;2.77;;
7683;SDS011;3884;48.616;12.872;2023-06-10T14:20:31;3.27;;;2.97;;
7683;SDS011;3884;48.616;12.872;2023-06-10T14:22:58;3.60;;;3.27;;
7683;SDS011;3884;48.616;12.872;2023-06-10T14:25:25;3.20;;;2.90;;
7683;SDS011;3884;48.616;12.872;2023-06-10T14:27:52;3.33;;;3.10;;
7683;SDS011;3884;48.616;12.872;2023-06-10T14:30:18;4.30;;;3.90;;
7683;SDS011;3884;48.616;12.872;2023-06-10T14:32:49;4.17;;;3.67;;
7683;SDS011;3884;48.616;12.872;2023-06-10T14:35:17;3.93;;;3.63;;
7683;SDS011;3884;48.616;12.872;2023-06-10T14:37:43;4.07;;;3.77;;
7683;SDS011;3884;48.616;12.872;2023-06-10T14:40:10;4.43;;;4.03;;
7683;SDS011;3884;48.616;12.872;2023-06-10T14:42:37;4.83;;;4.33;;
7683;SDS011;3884;48.616;12.872;2023-06-10T14:45:05;5.87;;;4.57;;
7683;SDS011;3884;48.616;12.872;2023-06-10T14:47:33;5.17;;;4.37;;
7683;SDS011;3884;48.616;12.872;2023-06-10T14:50:01;5.67;;;4.20;;
7683;SDS011;3884;48.616;12.872;2023-06-10T14:52:30;5.03;;;4.63;;
7683;SDS011;3884;48.616;12.872;2023-06-10T14:54:58;5.20;;;4.80;;
7683;SDS011;3884;48.616;12.872;2023-06-10T14:57:25;5.90;;;5.40;;
7683;SDS011;3884;48.616;12.872;2023-06-10T14:59:51;7.10;;;6.47;;
7683;SDS011;3884;48.616;12.872;2023-06-10T15:02:19;6.60;;;6.10;;
7683;SDS011;3884;48.616;12.872;2023-06-10T15:04:48;7.17;;;6.47;;
7683;SDS011;3884;48.616;12.872;2023-06-10T15:07:16;6.27;;;5.77;;
7683;SDS011;3884;48.616;12.872;2023-06-10T15:09:46;7.23;;;6.20;;